Time;durP1;ratioP1;P1;durP2;ratioP2;P2;SDS_P1;SDS_P2;PMS_P1;PMS_P2;Temp;Humidity;BMP_temperature;BMP_pressure;BME280_temperature;BME280_humidity;BME280_pressure;Samples;Min_cycle;Max_cycle;Signal;HPM_P1;HPM_P2
2021/04/20 00:00:19;;;;;;;3.15;1.75;;;23.60;39.20;;;;;;5080180;28;20332;-53
2021/04/20 00:02:44;;;;;;;3.20;1.90;;;23.60;39.30;;;;;;5076948;28;20504;-48
2021/04/20 00:05:14;;;;;;;3.58;1.92;;;23.60;39.30;;;;;;5081138;28;20051;-50
2021/04/20 00:07:39;;;;;;;3.72;1.67;;;23.60;39.30;;;;;;5064751;28;20054;-51
2021/04/20 00:10:10;;;;;;;3.25;1.80;;;23.60;39.20;;;;;;5076577;28;20336;-53
2021/04/20 00:12:36;;;;;;;2.70;1.80;;;23.60;39.20;;;;;;5071961;28;20028;-49
2021/04/20 00:15:17;;;;;;;2.38;1.60;;;23.60;39.20;;;;;;5075413;28;20042;-51
2021/04/20 00:17:43;;;;;;;3.15;1.90;;;23.60;39.30;;;;;;5064448;28;20028;-47
2021/04/20 00:20:10;;;;;;;3.58;1.70;;;23.60;39.20;;;;;;5076373;28;20029;-47
2021/04/20 00:22:36;;;;;;;2.45;1.60;;;23.60;39.30;;;;;;5078057;28;20028;-53
2021/04/20 00:25:02;;;;;;;3.00;1.63;;;23.60;39.30;;;;;;5078317;28;20039;-50
2021/04/20 00:27:28;;;;;;;2.80;1.80;;;23.60;39.30;;;;;;5079850;28;20489;-49
2021/04/20 00:29:53;;;;;;;3.40;1.83;;;23.50;39.20;;;;;;5081877;28;20134;-50
2021/04/20 00:32:19;;;;;;;2.88;1.60;;;23.50;39.20;;;;;;5081017;28;20051;-48
2021/04/20 00:34:44;;;;;;;3.00;1.70;;;23.50;39.20;;;;;;5079079;28;20023;-51
2021/04/20 00:37:10;;;;;;;2.67;1.70;;;23.50;39.20;;;;;;5082184;28;20082;-50
2021/04/20 00:39:37;;;;;;;2.78;1.88;;;23.50;39.20;;;;;;5081969;28;20097;-49
2021/04/20 00:42:04;;;;;;;3.28;1.58;;;23.50;39.20;;;;;;5080788;28;20024;-53
2021/04/20 00:44:31;;;;;;;2.90;1.90;;;23.50;39.20;;;;;;5078285;28;20130;-48
2021/04/20 00:47:01;;;;;;;3.25;1.92;;;23.50;39.30;;;;;;5081652;28;20034;-47
2021/04/20 00:49:27;;;;;;;2.47;1.58;;;23.50;39.20;;;;;;5081724;28;20032;-48
2021/04/20 00:51:54;;;;;;;2.55;1.60;;;23.50;39.20;;;;;;5080844;28;20063;-52
2021/04/20 00:54:21;;;;;;;2.88;1.80;;;23.50;39.20;;;;;;5081934;28;20043;-48
2021/04/20 00:56:47;;;;;;;2.90;1.52;;;23.50;39.20;;;;;;5076156;28;20094;-49
2021/04/20 00:59:13;;;;;;;2.47;1.63;;;23.50;39.70;;;;;;5080418;28;20060;-49
2021/04/20 01:01:40;;;;;;;3.67;1.90;;;23.50;39.20;;;;;;5082386;28;20036;-48
2021/04/20 01:04:10;;;;;;;2.75;1.55;;;23.40;39.20;;;;;;5088655;28;20085;-53
2021/04/20 01:06:36;;;;;;;2.67;1.60;;;23.40;39.20;;;;;;5085568;28;20081;-50
2021/04/20 01:09:03;;;;;;;2.38;1.60;;;23.40;39.20;;;;;;5087506;28;20032;-52
2021/04/20 01:11:29;;;;;;;2.75;1.80;;;23.40;39.20;;;;;;5088288;28;20040;-50
2021/04/20 01:13:55;;;;;;;2.70;1.75;;;23.40;39.20;;;;;;5088632;28;20038;-50
2021/04/20 01:16:21;;;;;;;2.80;1.60;;;23.40;39.20;;;;;;5089263;28;20036;-51
2021/04/20 01:18:47;;;;;;;2.72;1.60;;;23.40;39.20;;;;;;5078856;28;20035;-50
2021/04/20 01:21:14;;;;;;;2.75;1.75;;;23.40;39.20;;;;;;5085744;28;20492;-48
2021/04/20 01:24:01;;;;;;;2.72;1.77;;;23.40;39.30;;;;;;5086506;28;20153;-50
2021/04/20 01:26:30;;;;;;;2.50;1.58;;;23.40;39.20;;;;;;5081085;28;20134;-50
2021/04/20 01:28:56;;;;;;;2.25;1.60;;;23.40;39.20;;;;;;5087979;28;20031;-49
2021/04/20 01:31:22;;;;;;;2.47;1.50;;;23.40;39.20;;;;;;5087087;28;20298;-49
2021/04/20 01:33:49;;;;;;;2.58;1.70;;;23.40;39.20;;;;;;5080381;28;20441;-49
2021/04/20 01:36:17;;;;;;;2.35;1.30;;;23.40;39.20;;;;;;5082558;28;20535;-49
2021/04/20 01:38:49;;;;;;;2.55;1.58;;;23.40;39.30;;;;;;5084000;28;20116;-48
2021/04/20 01:41:16;;;;;;;2.22;1.40;;;23.40;39.20;;;;;;5079165;28;20450;-49
2021/04/20 01:43:42;;;;;;;2.70;1.60;;;23.30;39.20;;;;;;5086314;28;20024;-54
2021/04/20 01:46:08;;;;;;;2.70;1.60;;;23.40;39.30;;;;;;5088628;28;20043;-47
2021/04/20 01:48:34;;;;;;;2.25;1.40;;;23.40;39.30;;;;;;5088110;28;20068;-52
2021/04/20 01:51:00;;;;;;;2.83;1.52;;;23.30;39.20;;;;;;5085153;28;20058;-51
2021/04/20 01:53:26;;;;;;;2.50;1.45;;;23.30;39.20;;;;;;5088002;28;20040;-49
2021/04/20 01:56:04;;;;;;;2.35;1.50;;;23.30;39.20;;;;;;5085270;28;20471;-52
2021/04/20 01:58:32;;;;;;;2.25;1.48;;;23.30;39.20;;;;;;5068663;28;20029;-52
2021/04/20 02:01:03;;;;;;;2.10;1.35;;;23.30;39.20;;;;;;5081761;28;20043;-51
2021/04/20 02:03:29;;;;;;;2.35;1.33;;;23.30;39.30;;;;;;5086747;28;20485;-47
2021/04/20 02:05:56;;;;;;;2.10;1.40;;;23.30;39.30;;;;;;5085539;28;20023;-52
2021/04/20 02:08:22;;;;;;;1.92;1.20;;;23.30;39.30;;;;;;5087715;28;20114;-48
2021/04/20 02:10:51;;;;;;;1.80;1.20;;;23.30;39.30;;;;;;5084307;28;20089;-49
2021/04/20 02:13:19;;;;;;;2.38;1.50;;;23.30;39.30;;;;;;5079926;28;20383;-54
2021/04/20 02:15:45;;;;;;;2.17;1.55;;;23.30;39.30;;;;;;5083786;28;20024;-48
2021/04/20 02:18:11;;;;;;;2.47;1.35;;;23.30;39.20;;;;;;5067367;28;20062;-47
2021/04/20 02:20:38;;;;;;;2.53;1.67;;;23.30;39.30;;;;;;5088323;28;20352;-50
2021/04/20 02:23:05;;;;;;;2.17;1.38;;;23.30;39.30;;;;;;5080305;28;20035;-48
2021/04/20 02:25:31;;;;;;;2.53;1.50;;;23.30;39.30;;;;;;5075261;28;20530;-49
2021/04/20 02:27:57;;;;;;;2.58;1.50;;;23.30;39.30;;;;;;5083009;28;20063;-50
2021/04/20 02:30:24;;;;;;;2.95;1.33;;;23.30;39.20;;;;;;5083912;28;20075;-50
2021/04/20 02:32:50;;;;;;;2.20;1.30;;;23.30;39.20;;;;;;5075366;28;20434;-51
2021/04/20 02:35:17;;;;;;;2.50;1.50;;;23.30;39.30;;;;;;5079489;28;20077;-51
2021/04/20 02:37:44;;;;;;;2.10;1.50;;;23.30;39.30;;;;;;5073923;28;20090;-48
2021/04/20 02:40:17;;;;;;;2.65;1.48;;;23.30;39.30;;;;;;5080005;28;20102;-49
2021/04/20 02:42:43;;;;;;;2.05;1.27;;;23.30;39.30;;;;;;5081039;28;20039;-51
2021/04/20 02:45:10;;;;;;;2.30;1.23;;;23.30;39.30;;;;;;5075001;28;20050;-47
2021/04/20 02:47:36;;;;;;;2.10;1.23;;;23.20;39.20;;;;;;5077492;28;20047;-52
2021/04/20 02:50:08;;;;;;;1.98;1.20;;;23.20;39.20;;;;;;5081862;28;20063;-49
2021/04/20 02:52:36;;;;;;;1.92;1.17;;;23.20;39.20;;;;;;5083332;28;20044;-53
2021/04/20 02:55:05;;;;;;;2.00;1.30;;;23.20;39.20;;;;;;5081317;28;20115;-50
2021/04/20 02:57:36;;;;;;;2.60;1.40;;;23.30;39.30;;;;;;5082836;28;20059;-54
2021/04/20 03:00:04;;;;;;;2.45;1.42;;;23.20;39.20;;;;;;5063253;28;20089;-50
2021/04/20 03:02:31;;;;;;;1.95;1.40;;;23.20;39.20;;;;;;5073943;28;20046;-50
2021/04/20 03:04:56;;;;;;;2.20;1.30;;;23.20;39.20;;;;;;5069846;28;20024;-50
2021/04/20 03:07:22;;;;;;;2.30;1.40;;;23.20;39.20;;;;;;5081117;28;20031;-52
2021/04/20 03:09:48;;;;;;;2.63;1.20;;;23.20;39.20;;;;;;5080126;28;20055;-47
2021/04/20 03:12:14;;;;;;;1.83;1.30;;;23.20;39.30;;;;;;5076662;28;20143;-48
2021/04/20 03:14:40;;;;;;;2.50;1.48;;;23.20;39.30;;;;;;5081688;28;20478;-47
2021/04/20 03:17:06;;;;;;;2.55;1.38;;;23.20;39.20;;;;;;5084649;28;20035;-51
2021/04/20 03:19:32;;;;;;;2.30;1.42;;;23.20;39.30;;;;;;5083544;28;20466;-52
2021/04/20 03:21:58;;;;;;;1.90;1.20;;;23.20;39.30;;;;;;5081750;28;20063;-51
2021/04/20 03:24:33;;;;;;;1.90;1.20;;;23.10;39.20;;;;;;5079933;28;20153;-50
2021/04/20 03:26:59;;;;;;;1.83;1.25;;;23.10;39.20;;;;;;5074450;28;20335;-53
2021/04/20 03:29:26;;;;;;;1.83;1.17;;;23.20;39.30;;;;;;5084008;28;20024;-51
2021/04/20 03:31:52;;;;;;;1.83;1.27;;;23.10;39.20;;;;;;5081082;28;20043;-52
2021/04/20 03:34:39;;;;;;;1.80;1.30;;;23.10;39.20;;;;;;5079151;28;20042;-50
2021/04/20 03:37:10;;;;;;;1.85;1.20;;;23.20;39.30;;;;;;5082084;28;20032;-52
2021/04/20 03:39:39;;;;;;;2.00;1.30;;;23.20;39.30;;;;;;5081935;28;20035;-54
2021/04/20 03:42:11;;;;;;;2.08;1.30;;;23.10;39.20;;;;;;5082612;28;20475;-54
2021/04/20 03:45:00;;;;;;;1.80;1.30;;;23.10;39.20;;;;;;5067730;28;20050;-50
2021/04/20 03:47:35;;;;;;;1.48;1.10;;;23.10;39.20;;;;;;5078597;28;20058;-56
2021/04/20 03:50:02;;;;;;;1.75;1.20;;;23.10;39.30;;;;;;5079267;28;20078;-54
2021/04/20 03:52:38;;;;;;;2.13;1.20;;;23.10;39.20;;;;;;5082037;28;20043;-49
2021/04/20 03:55:08;;;;;;;1.58;1.08;;;23.10;39.20;;;;;;5082334;28;20053;-49
2021/04/20 03:57:35;;;;;;;2.05;1.30;;;23.10;39.20;;;;;;5078678;28;20058;-48
2021/04/20 04:00:05;;;;;;;1.70;1.20;;;23.10;39.20;;;;;;5078304;28;20043;-55
2021/04/20 04:02:36;;;;;;;1.40;1.10;;;23.10;39.20;;;;;;5076700;28;20032;-50
2021/04/20 04:05:03;;;;;;;2.10;1.30;;;23.10;39.80;;;;;;5082449;28;20069;-55
2021/04/20 04:07:30;;;;;;;1.67;1.20;;;23.10;39.20;;;;;;5084950;28;20405;-51
2021/04/20 04:09:56;;;;;;;1.98;1.10;;;23.10;39.20;;;;;;5084214;28;20102;-50
2021/04/20 04:12:24;;;;;;;1.50;1.10;;;23.10;39.20;;;;;;5081412;28;20084;-52
2021/04/20 04:14:52;;;;;;;1.83;1.23;;;23.10;39.20;;;;;;5082773;28;20110;-57
2021/04/20 04:17:20;;;;;;;1.80;1.20;;;23.10;39.30;;;;;;5081175;28;20031;-50
2021/04/20 04:19:53;;;;;;;1.90;1.20;;;23.10;39.30;;;;;;5072966;28;20031;-50
2021/04/20 04:22:25;;;;;;;1.70;1.17;;;23.10;39.20;;;;;;5078995;28;20039;-48
2021/04/20 04:24:53;;;;;;;1.27;1.10;;;23.10;39.30;;;;;;5081974;28;20089;-48
2021/04/20 04:27:22;;;;;;;1.77;1.23;;;23.10;39.30;;;;;;5083318;28;20028;-49
2021/04/20 04:29:48;;;;;;;1.67;1.10;;;23.10;39.30;;;;;;5075636;28;20024;-47
2021/04/20 04:32:17;;;;;;;1.58;1.08;;;23.10;39.30;;;;;;5074579;28;20046;-47
2021/04/20 04:34:46;;;;;;;1.90;1.30;;;23.00;39.20;;;;;;5082726;28;20082;-49
2021/04/20 04:37:13;;;;;;;2.78;1.25;;;23.00;39.20;;;;;;5083206;28;20047;-48
2021/04/20 04:39:41;;;;;;;1.70;1.20;;;23.00;39.20;;;;;;5078170;28;20028;-50
2021/04/20 04:42:07;;;;;;;1.60;1.20;;;23.00;39.20;;;;;;5074509;28;20073;-50
2021/04/20 04:44:33;;;;;;;1.67;1.10;;;23.00;39.20;;;;;;5081223;28;20032;-53
2021/04/20 04:46:59;;;;;;;1.95;1.23;;;23.00;39.30;;;;;;5080831;28;20032;-51
2021/04/20 04:49:26;;;;;;;1.77;1.13;;;23.00;39.30;;;;;;5080266;28;20039;-54
2021/04/20 04:51:52;;;;;;;1.67;1.10;;;23.00;39.30;;;;;;5079822;28;20043;-53
2021/04/20 04:54:20;;;;;;;1.98;1.13;;;23.00;39.30;;;;;;5081901;28;20479;-51
2021/04/20 04:56:46;;;;;;;1.60;1.08;;;23.00;39.30;;;;;;5082023;28;20047;-53
2021/04/20 04:59:18;;;;;;;1.50;1.10;;;23.00;39.30;;;;;;5082130;28;20533;-48
2021/04/20 05:01:45;;;;;;;2.13;1.13;;;23.00;39.30;;;;;;5081932;28;20122;-51
2021/04/20 05:04:12;;;;;;;1.85;1.10;;;23.00;39.30;;;;;;5081736;28;20230;-47
2021/04/20 05:06:41;;;;;;;1.77;1.10;;;23.00;39.30;;;;;;5077640;28;20029;-51
2021/04/20 05:09:08;;;;;;;2.70;1.10;;;23.00;39.20;;;;;;5063726;28;20025;-50
2021/04/20 05:11:37;;;;;;;1.90;1.20;;;23.00;39.20;;;;;;5081732;28;20100;-47
2021/04/20 05:14:02;;;;;;;1.50;1.00;;;23.00;39.30;;;;;;5081162;28;20511;-47
2021/04/20 05:16:28;;;;;;;2.58;1.30;;;23.00;39.30;;;;;;5080945;28;20028;-50
2021/04/20 05:18:55;;;;;;;2.33;1.25;;;23.00;39.30;;;;;;5077413;28;20469;-53
2021/04/20 05:21:22;;;;;;;1.77;1.23;;;23.00;39.30;;;;;;5080927;28;20155;-55
2021/04/20 05:23:48;;;;;;;1.90;1.20;;;23.00;39.30;;;;;;5071361;28;20016;-51
2021/04/20 05:26:14;;;;;;;1.77;1.23;;;23.00;39.40;;;;;;5082929;28;20533;-47
2021/04/20 05:28:39;;;;;;;3.03;1.30;;;23.00;39.40;;;;;;5080174;28;20115;-50
2021/04/20 05:31:05;;;;;;;1.98;1.27;;;23.00;39.40;;;;;;5081391;28;20035;-52
2021/04/20 05:33:30;;;;;;;1.52;1.10;;;23.00;39.30;;;;;;5081835;28;20036;-50
2021/04/20 05:36:10;;;;;;;1.90;1.25;;;23.00;39.40;;;;;;5082374;28;20136;-51
2021/04/20 05:38:37;;;;;;;1.98;1.20;;;23.00;39.40;;;;;;5082715;28;20035;-50
2021/04/20 05:41:04;;;;;;;1.27;1.00;;;23.00;39.40;;;;;;5081062;28;20302;-50
2021/04/20 05:43:29;;;;;;;2.15;1.30;;;23.00;39.40;;;;;;5081488;28;20020;-53
2021/04/20 05:45:55;;;;;;;2.65;1.30;;;23.00;39.40;;;;;;5081022;28;20463;-50
2021/04/20 05:48:21;;;;;;;2.15;1.40;;;23.00;39.40;;;;;;5085134;28;20028;-54
2021/04/20 05:50:50;;;;;;;3.13;1.20;;;23.00;39.40;;;;;;5084746;28;20064;-50
2021/04/20 05:53:17;;;;;;;2.95;1.38;;;22.90;39.40;;;;;;5077222;28;20071;-51
2021/04/20 05:55:43;;;;;;;2.17;1.30;;;22.90;39.40;;;;;;5080520;28;20794;-53
2021/04/20 05:58:10;;;;;;;2.25;1.23;;;23.00;39.40;;;;;;5084134;28;20035;-49
2021/04/20 06:00:36;;;;;;;2.15;1.27;;;23.00;39.40;;;;;;5085681;28;20038;-53
2021/04/20 06:03:02;;;;;;;1.60;1.15;;;22.90;39.40;;;;;;5084945;28;20638;-50
2021/04/20 06:05:31;;;;;;;1.85;1.02;;;23.00;39.40;;;;;;5085298;28;20168;-50
2021/04/20 06:08:04;;;;;;;1.77;1.10;;;22.90;39.40;;;;;;5084842;28;20038;-52
2021/04/20 06:10:31;;;;;;;1.77;1.10;;;22.90;39.40;;;;;;5085998;28;20055;-48
2021/04/20 06:12:58;;;;;;;2.03;1.42;;;22.90;39.40;;;;;;5081626;28;20031;-51
2021/04/20 06:15:25;;;;;;;1.52;1.15;;;22.90;39.40;;;;;;5084468;28;20381;-50
2021/04/20 06:17:52;;;;;;;2.25;1.30;;;22.90;39.40;;;;;;5085525;28;20438;-53
2021/04/20 06:20:19;;;;;;;2.03;1.20;;;22.90;39.40;;;;;;5085344;28;20032;-51
2021/04/20 06:22:49;;;;;;;1.65;1.00;;;22.90;39.40;;;;;;5082724;28;20036;-51
2021/04/20 06:25:16;;;;;;;2.05;1.02;;;22.90;39.40;;;;;;5073928;28;20028;-48
2021/04/20 06:27:43;;;;;;;2.25;1.20;;;22.90;39.40;;;;;;5094067;28;20323;-50
2021/04/20 06:30:10;;;;;;;2.50;1.20;;;22.90;39.40;;;;;;5084409;28;20141;-55
2021/04/20 06:32:40;;;;;;;2.03;1.23;;;22.90;39.40;;;;;;5085532;28;20685;-52
2021/04/20 06:35:08;;;;;;;2.42;1.20;;;22.90;39.40;;;;;;5084680;28;20035;-48
2021/04/20 06:37:36;;;;;;;2.43;1.30;;;22.90;39.40;;;;;;5084979;28;20439;-50
2021/04/20 06:40:08;;;;;;;1.60;1.10;;;22.90;39.40;;;;;;5084106;28;20027;-54
2021/04/20 06:42:39;;;;;;;2.33;1.20;;;22.90;39.40;;;;;;5083985;28;20621;-54
2021/04/20 06:45:11;;;;;;;1.90;1.17;;;22.90;39.40;;;;;;5071851;28;20696;-50
2021/04/20 06:47:45;;;;;;;1.83;1.15;;;22.90;39.40;;;;;;5084678;28;20038;-48
2021/04/20 06:50:16;;;;;;;1.85;1.05;;;22.90;39.40;;;;;;5083312;28;20486;-51
2021/04/20 06:52:50;;;;;;;2.70;1.10;;;22.90;39.40;;;;;;5084876;28;20439;-50
2021/04/20 06:55:47;;;;;;;1.77;1.20;;;22.90;39.40;;;;;;5076161;28;20096;-50
2021/04/20 06:58:20;;;;;;;1.75;1.27;;;22.90;39.40;;;;;;5079270;28;20586;-48
2021/04/20 07:00:51;;;;;;;1.67;1.15;;;22.90;39.50;;;;;;5079433;28;20075;-49
2021/04/20 07:03:48;;;;;;;1.60;1.05;;;22.90;39.30;;;;;;5080732;28;20093;-52
2021/04/20 07:06:25;;;;;;;2.60;1.20;;;22.90;39.40;;;;;;5078220;28;20040;-54
2021/04/20 07:08:59;;;;;;;1.45;1.05;;;22.80;39.30;;;;;;5083846;28;20036;-59
2021/04/20 07:11:33;;;;;;;1.55;1.20;;;22.90;39.40;;;;;;5085991;28;20032;-51
2021/04/20 07:14:02;;;;;;;1.60;1.10;;;22.90;39.40;;;;;;5083697;28;20370;-53
2021/04/20 07:16:28;;;;;;;1.48;1.05;;;22.80;39.30;;;;;;5082558;28;20028;-53
2021/04/20 07:19:06;;;;;;;2.55;1.45;;;22.90;39.40;;;;;;5078334;28;20039;-56
2021/04/20 07:22:19;;;;;;;1.90;1.20;;;22.90;39.50;;;;;;5083816;28;20146;-51
2021/04/20 07:25:14;;;;;;;2.53;1.30;;;23.00;39.40;;;;;;5077731;28;20124;-53
2021/04/20 07:28:07;;;;;;;1.85;1.23;;;23.00;39.30;;;;;;5080470;28;20028;-53
2021/04/20 07:31:10;;;;;;;2.00;1.30;;;23.00;39.90;;;;;;5079060;28;20169;-50
2021/04/20 07:33:55;;;;;;;2.65;1.40;;;23.10;39.30;;;;;;5049987;28;20480;-53
2021/04/20 07:36:57;;;;;;;3.20;1.42;;;23.10;39.30;;;;;;5058189;28;20056;-50
2021/04/20 07:39:24;;;;;;;2.85;1.52;;;23.10;39.30;;;;;;5055040;28;20086;-52
2021/04/20 07:41:55;;;;;;;2.88;1.10;;;23.10;39.30;;;;;;5075674;28;20173;-52
2021/04/20 07:44:33;;;;;;;1.85;1.33;;;23.20;39.40;;;;;;5047282;28;20032;-53
2021/04/20 07:47:10;;;;;;;2.50;1.52;;;23.20;39.30;;;;;;5050345;28;20055;-54
2021/04/20 07:49:50;;;;;;;3.05;1.30;;;23.30;39.40;;;;;;5063854;28;20029;-52
2021/04/20 07:52:28;;;;;;;1.58;1.13;;;23.30;39.30;;;;;;5064387;28;20040;-53
2021/04/20 07:55:04;;;;;;;2.13;1.40;;;23.30;39.30;;;;;;5062461;28;20094;-53
2021/04/20 07:57:44;;;;;;;1.88;1.30;;;23.30;39.30;;;;;;5063330;28;20028;-54
2021/04/20 08:00:16;;;;;;;2.15;1.30;;;23.40;39.30;;;;;;5063180;28;20103;-50
2021/04/20 08:03:19;;;;;;;2.20;1.40;;;23.40;39.30;;;;;;5051720;28;20029;-52
2021/04/20 08:06:02;;;;;;;2.92;1.27;;;23.40;39.30;;;;;;5058295;28;20056;-50
2021/04/20 08:08:35;;;;;;;1.55;1.05;;;23.50;39.30;;;;;;5063347;28;20096;-50
2021/04/20 08:11:11;;;;;;;3.42;1.35;;;23.50;39.20;;;;;;5059385;28;20028;-56
2021/04/20 08:13:49;;;;;;;3.38;1.30;;;23.50;39.20;;;;;;5042293;28;20435;-51
2021/04/20 08:16:44;;;;;;;2.42;1.25;;;23.60;39.20;;;;;;5052805;28;20098;-49
2021/04/20 08:19:09;;;;;;;2.40;1.50;;;23.60;39.20;;;;;;5053527;28;20040;-55
2021/04/20 08:21:41;;;;;;;1.77;1.30;;;23.60;39.20;;;;;;5049825;28;20446;-51
2021/04/20 08:24:15;;;;;;;1.88;1.20;;;23.60;39.70;;;;;;5060507;28;20177;-54
2021/04/20 08:26:47;;;;;;;2.45;1.40;;;23.70;39.10;;;;;;5042546;28;20432;-52
2021/04/20 08:29:20;;;;;;;4.20;2.10;;;23.60;39.00;;;;;;5061070;28;20035;-54
2021/04/20 08:31:56;;;;;;;2.15;1.20;;;23.70;39.10;;;;;;5067025;28;20135;-49
2021/04/20 08:34:35;;;;;;;3.10;1.30;;;23.70;39.10;;;;;;5080499;28;20482;-48
2021/04/20 08:37:00;;;;;;;1.95;1.40;;;23.70;39.00;;;;;;5083184;28;20051;-50
2021/04/20 08:39:47;;;;;;;1.67;1.20;;;23.80;39.10;;;;;;5082481;28;20312;-49
2021/04/20 08:42:43;;;;;;;2.42;1.23;;;23.80;39.10;;;;;;5082678;28;20364;-54
2021/04/20 08:45:19;;;;;;;2.38;1.60;;;23.90;39.10;;;;;;5081803;28;20388;-53
2021/04/20 08:48:02;;;;;;;2.08;1.30;;;23.90;39.10;;;;;;5082062;28;20116;-49
2021/04/20 08:50:32;;;;;;;1.95;1.30;;;23.90;39.00;;;;;;5081977;28;20146;-52
2021/04/20 08:53:04;;;;;;;2.42;1.40;;;23.90;38.90;;;;;;5073615;28;20118;-49
2021/04/20 08:56:03;;;;;;;1.92;1.15;;;23.90;38.90;;;;;;5080351;28;20463;-54
2021/04/20 08:58:47;;;;;;;2.05;1.30;;;24.00;38.90;;;;;;5058111;28;20046;-52
2021/04/20 09:01:26;;;;;;;1.50;1.13;;;24.00;38.80;;;;;;5065729;28;20041;-55
2021/04/20 09:04:21;;;;;;;1.50;1.17;;;24.10;38.90;;;;;;5056464;28;20127;-50
2021/04/20 09:06:51;;;;;;;1.73;1.30;;;24.10;38.80;;;;;;5061553;28;20040;-52
2021/04/20 09:09:24;;;;;;;2.38;1.50;;;24.10;38.80;;;;;;5062657;28;20046;-52
2021/04/20 09:12:05;;;;;;;2.22;1.35;;;24.10;38.80;;;;;;5063009;28;20431;-52
2021/04/20 09:14:41;;;;;;;2.38;1.50;;;24.10;38.70;;;;;;5061064;28;20395;-51
2021/04/20 09:17:17;;;;;;;1.75;1.20;;;24.20;38.70;;;;;;5062774;28;20235;-51
2021/04/20 09:19:54;;;;;;;2.40;1.40;;;24.20;38.70;;;;;;5053505;28;21631;-53
2021/04/20 09:22:26;;;;;;;2.50;1.58;;;24.20;38.60;;;;;;5057534;28;20419;-55
2021/04/20 09:25:37;;;;;;;3.33;2.30;;;24.30;38.40;;;;;;5061901;28;20065;-54
2021/04/20 09:28:16;;;;;;;3.13;2.13;;;24.30;38.20;;;;;;5020659;28;20074;-53
2021/04/20 09:30:49;;;;;;;2.13;1.70;;;24.30;38.20;;;;;;5066119;28;20136;-53
2021/04/20 09:33:33;;;;;;;2.60;2.00;;;24.30;38.40;;;;;;5065098;28;20021;-54
2021/04/20 09:36:00;;;;;;;3.70;2.00;;;24.30;38.30;;;;;;5057979;28;20048;-51
2021/04/20 09:38:28;;;;;;;3.00;1.95;;;24.30;38.30;;;;;;5065439;28;20411;-50
2021/04/20 09:40:54;;;;;;;2.80;2.10;;;24.30;38.30;;;;;;5064898;28;20032;-49
2021/04/20 09:43:23;;;;;;;3.60;2.47;;;24.30;38.20;;;;;;5063069;28;20025;-54
2021/04/20 09:46:09;;;;;;;3.22;2.25;;;24.30;38.00;;;;;;5065748;28;20505;-49
2021/04/20 09:48:53;;;;;;;2.75;2.28;;;24.30;38.00;;;;;;5065188;28;20033;-48
2021/04/20 09:51:29;;;;;;;2.88;2.13;;;24.30;37.90;;;;;;5059977;28;20044;-47
2021/04/20 09:54:17;;;;;;;3.40;2.22;;;24.30;38.00;;;;;;5062572;28;20426;-55
2021/04/20 09:56:54;;;;;;;3.65;2.85;;;24.30;37.90;;;;;;5062241;28;20036;-55
2021/04/20 09:59:33;;;;;;;3.78;2.70;;;24.30;37.80;;;;;;5065213;28;20086;-51
2021/04/20 10:02:19;;;;;;;3.47;2.58;;;24.30;37.60;;;;;;5059344;28;20061;-54
2021/04/20 10:05:00;;;;;;;3.80;2.83;;;24.30;37.50;;;;;;5046266;28;20481;-51
2021/04/20 10:07:54;;;;;;;4.18;2.90;;;24.30;37.50;;;;;;5065769;28;20059;-54
2021/04/20 10:10:34;;;;;;;4.25;3.53;;;24.30;37.20;;;;;;5064537;28;20471;-52
2021/04/20 10:12:59;;;;;;;4.60;3.35;;;24.30;36.80;;;;;;5063549;28;20518;-56
2021/04/20 10:15:36;;;;;;;4.80;3.80;;;24.20;36.80;;;;;;5064429;28;20034;-53
2021/04/20 10:18:04;;;;;;;5.40;3.85;;;24.20;36.70;;;;;;5064221;28;20036;-52
2021/04/20 10:21:08;;;;;;;5.25;4.35;;;24.20;36.90;;;;;;5063609;28;20036;-52
2021/04/20 10:23:50;;;;;;;5.13;3.97;;;24.20;36.70;;;;;;5032603;28;20414;-53
2021/04/20 10:26:21;;;;;;;5.20;4.18;;;24.20;36.40;;;;;;5059736;28;20107;-50
2021/04/20 10:29:12;;;;;;;4.53;3.70;;;24.20;36.30;;;;;;5063093;28;20028;-51
2021/04/20 10:32:04;;;;;;;5.63;4.68;;;24.20;37.00;;;;;;5062692;28;20033;-54
2021/04/20 10:34:30;;;;;;;5.10;3.83;;;24.20;36.10;;;;;;5060715;28;20044;-53
2021/04/20 10:36:57;;;;;;;3.53;2.60;;;24.20;36.60;;;;;;5064890;28;20039;-53
2021/04/20 10:39:24;;;;;;;3.42;2.50;;;24.20;37.10;;;;;;5063934;28;20032;-51
2021/04/20 10:41:53;;;;;;;3.75;2.17;;;24.30;37.40;;;;;;5065059;28;20029;-52
2021/04/20 10:44:20;;;;;;;2.88;1.98;;;24.30;37.50;;;;;;5063647;28;20187;-52
2021/04/20 10:46:51;;;;;;;2.97;2.00;;;24.30;37.50;;;;;;5065220;28;20470;-51
2021/04/20 10:49:19;;;;;;;3.30;2.03;;;24.30;37.60;;;;;;5065274;28;20024;-54
2021/04/20 10:51:47;;;;;;;2.85;1.83;;;24.30;37.60;;;;;;5065426;28;20105;-53
2021/04/20 10:54:15;;;;;;;3.40;2.20;;;24.30;37.60;;;;;;5063264;28;20531;-52
2021/04/20 10:56:51;;;;;;;2.70;1.90;;;24.40;37.70;;;;;;5064179;28;20024;-52
2021/04/20 10:59:31;;;;;;;3.45;1.98;;;24.40;37.60;;;;;;5064486;28;20025;-53
2021/04/20 11:02:02;;;;;;;3.38;2.20;;;24.50;37.70;;;;;;5059226;28;20033;-53
2021/04/20 11:04:32;;;;;;;3.60;2.50;;;24.50;37.70;;;;;;5051876;28;20041;-52
2021/04/20 11:07:19;;;;;;;;;;;24.50;37.70;;;;;;5064874;28;20070;-53
2021/04/20 11:09:46;;;;;;;3.20;1.98;;;24.50;37.70;;;;;;5062541;28;19923;-54
2021/04/20 11:12:18;;;;;;;2.70;1.90;;;24.60;37.80;;;;;;5054977;28;20036;-53
2021/04/20 11:14:49;;;;;;;2.63;1.88;;;24.50;37.70;;;;;;5061751;28;20130;-53
2021/04/20 11:17:26;;;;;;;3.17;1.92;;;24.60;37.80;;;;;;5063547;28;20526;-53
2021/04/20 11:20:14;;;;;;;3.10;2.22;;;24.60;37.80;;;;;;5061957;28;20040;-52
2021/04/20 11:22:56;;;;;;;3.20;2.13;;;24.60;37.90;;;;;;5055243;28;20601;-55
2021/04/20 11:25:44;;;;;;;2.95;2.00;;;24.50;37.80;;;;;;5052880;28;20239;-50
2021/04/20 11:28:35;;;;;;;3.20;2.22;;;24.60;37.90;;;;;;5063724;28;20368;-52
2021/04/20 11:31:03;;;;;;;3.42;2.00;;;24.60;37.90;;;;;;5058507;28;20522;-53
2021/04/20 11:33:38;;;;;;;3.17;2.10;;;24.60;37.90;;;;;;5063067;28;20031;-52
2021/04/20 11:36:12;;;;;;;2.78;1.80;;;24.60;38.00;;;;;;5063428;28;20052;-54
2021/04/20 11:38:45;;;;;;;2.80;2.00;;;24.60;38.00;;;;;;5057534;28;20111;-48
2021/04/20 11:41:12;;;;;;;3.13;2.10;;;24.60;38.00;;;;;;5050928;28;20105;-50
2021/04/20 11:43:39;;;;;;;3.28;1.90;;;24.60;38.00;;;;;;5061203;28;20371;-47
2021/04/20 11:46:07;;;;;;;3.30;2.05;;;24.60;38.00;;;;;;5062607;28;20032;-56
2021/04/20 11:48:35;;;;;;;3.08;2.03;;;24.60;38.00;;;;;;5062178;28;20036;-51
2021/04/20 11:51:04;;;;;;;2.67;1.88;;;24.70;38.10;;;;;;5063529;28;20107;-52
2021/04/20 11:53:43;;;;;;;3.05;1.90;;;24.70;38.10;;;;;;5058703;28;20518;-51
2021/04/20 11:56:10;;;;;;;3.10;2.13;;;24.70;38.10;;;;;;5057241;28;20051;-51
2021/04/20 11:58:37;;;;;;;3.13;2.00;;;24.70;38.10;;;;;;5059314;28;20658;-55
2021/04/20 12:01:22;;;;;;;3.70;2.03;;;24.70;38.10;;;;;;5058725;28;20102;-54
2021/04/20 12:03:54;;;;;;;3.42;2.30;;;24.70;38.70;;;;;;5057506;28;20034;-50
2021/04/20 12:06:21;;;;;;;3.00;2.10;;;24.70;38.10;;;;;;5066170;28;20037;-55
2021/04/20 12:08:53;;;;;;;3.05;2.00;;;24.70;38.10;;;;;;5059991;28;20123;-56
2021/04/20 12:11:24;;;;;;;3.47;2.33;;;24.80;38.20;;;;;;5060790;28;20550;-55
2021/04/20 12:13:51;;;;;;;3.33;2.03;;;24.80;38.20;;;;;;5061680;28;20037;-50
2021/04/20 12:16:17;;;;;;;3.00;2.00;;;24.80;38.20;;;;;;5063723;28;20029;-55
2021/04/20 12:18:49;;;;;;;3.25;2.05;;;24.80;38.20;;;;;;5059669;28;20039;-52
2021/04/20 12:21:24;;;;;;;3.38;2.20;;;24.80;38.20;;;;;;5059917;28;20061;-58
2021/04/20 12:23:59;;;;;;;2.80;1.90;;;24.80;38.20;;;;;;5065508;28;20560;-54
2021/04/20 12:26:29;;;;;;;4.53;2.05;;;24.80;38.20;;;;;;5053871;28;20029;-56
2021/04/20 12:29:03;;;;;;;3.13;2.10;;;24.80;38.20;;;;;;5062743;28;20029;-53
2021/04/20 12:31:37;;;;;;;3.65;2.28;;;24.80;38.20;;;;;;5062323;28;20076;-51
2021/04/20 12:34:04;;;;;;;3.20;2.20;;;24.80;38.30;;;;;;5060493;28;20029;-57
2021/04/20 12:36:41;;;;;;;3.80;2.50;;;24.80;38.30;;;;;;5063052;28;20029;-54
2021/04/20 12:39:11;;;;;;;3.58;2.20;;;24.80;38.30;;;;;;5063779;28;20031;-52
2021/04/20 12:41:39;;;;;;;4.60;2.40;;;24.80;38.20;;;;;;5060564;28;20474;-52
2021/04/20 12:44:09;;;;;;;3.13;2.10;;;24.80;38.10;;;;;;5050454;28;20450;-58
2021/04/20 12:46:36;;;;;;;3.53;2.40;;;24.80;38.10;;;;;;5056178;28;20028;-53
2021/04/20 12:49:04;;;;;;;3.60;2.20;;;24.80;38.10;;;;;;5054575;28;20500;-56
2021/04/20 12:51:32;;;;;;;4.30;2.53;;;24.90;38.10;;;;;;5051246;28;20111;-56
2021/04/20 12:54:01;;;;;;;3.30;2.22;;;24.90;38.10;;;;;;5056867;28;20111;-55
2021/04/20 12:56:36;;;;;;;4.40;2.50;;;24.90;38.10;;;;;;5057259;28;20032;-53
2021/04/20 12:59:05;;;;;;;3.25;2.20;;;24.90;38.10;;;;;;5043368;28;20589;-57
2021/04/20 13:01:32;;;;;;;4.88;2.30;;;24.90;38.10;;;;;;5050719;28;20232;-54
2021/04/20 13:03:58;;;;;;;3.90;2.55;;;24.90;38.10;;;;;;5038626;28;20083;-56
2021/04/20 13:06:26;;;;;;;3.90;2.40;;;24.90;38.10;;;;;;5054610;28;20024;-55
2021/04/20 13:08:54;;;;;;;3.78;2.20;;;25.00;38.10;;;;;;5059336;28;20068;-51
2021/04/20 13:11:43;;;;;;;3.65;2.25;;;24.90;38.10;;;;;;5060015;28;20128;-57